createdAt,value
2018-07-23T00:01:49.910Z,99.90
2018-07-23T00:04:23.715Z,99.90
2018-07-23T00:06:57.503Z,99.90
2018-07-23T00:09:31.308Z,99.90
2018-07-23T00:12:05.052Z,99.90
2018-07-23T00:14:38.792Z,99.90
2018-07-23T00:17:12.725Z,99.90
2018-07-23T00:19:46.459Z,99.90
2018-07-23T00:22:21.028Z,99.90
2018-07-23T00:24:55.495Z,99.90
2018-07-23T00:27:30.059Z,99.90
2018-07-23T00:30:03.803Z,99.90
2018-07-23T00:32:38.479Z,99.90
2018-07-23T00:35:12.198Z,99.90
2018-07-23T00:37:45.964Z,99.90
2018-07-23T00:40:19.754Z,99.90
2018-07-23T00:42:53.767Z,99.90
2018-07-23T00:45:27.612Z,99.90
2018-07-23T00:48:01.416Z,99.90
2018-07-23T00:50:35.256Z,99.90
2018-07-23T00:53:09.024Z,99.90
2018-07-23T00:55:42.764Z,99.90
2018-07-23T00:58:16.671Z,99.90
2018-07-23T01:00:50.478Z,99.90
2018-07-23T01:03:24.303Z,99.90
2018-07-23T01:05:58.123Z,99.90
2018-07-23T01:08:31.867Z,99.90
2018-07-23T01:11:05.735Z,99.90
2018-07-23T01:13:39.531Z,99.90
2018-07-23T01:16:13.259Z,99.90
2018-07-23T01:18:47.144Z,99.90
2018-07-23T01:21:21.063Z,99.90
2018-07-23T01:23:54.802Z,99.90
2018-07-23T01:26:28.664Z,99.90
2018-07-23T01:29:02.443Z,99.90
2018-07-23T01:31:36.247Z,99.90
2018-07-23T01:34:10.059Z,99.90
2018-07-23T01:36:43.867Z,99.90
2018-07-23T01:39:17.703Z,99.90
2018-07-23T01:41:51.391Z,99.90
2018-07-23T01:44:25.277Z,99.90
2018-07-23T01:46:59.812Z,99.90
2018-07-23T01:49:33.579Z,99.90
2018-07-23T01:52:07.196Z,99.90
2018-07-23T01:54:41.022Z,99.90
2018-07-23T01:57:14.811Z,99.90
2018-07-23T01:59:49.436Z,99.90
2018-07-23T02:02:23.343Z,99.90
2018-07-23T02:04:57.152Z,99.90
2018-07-23T02:07:30.899Z,99.90
2018-07-23T02:10:04.627Z,99.90
2018-07-23T02:12:38.451Z,99.90
2018-07-23T02:15:12.216Z,99.90
2018-07-23T02:17:45.906Z,99.90
2018-07-23T02:20:19.717Z,99.90
2018-07-23T02:22:53.523Z,99.90
2018-07-23T02:25:27.343Z,99.90
2018-07-23T02:28:02.032Z,99.90
2018-07-23T02:30:36.678Z,99.90
2018-07-23T02:33:10.643Z,99.90
2018-07-23T02:35:44.455Z,99.90
2018-07-23T02:38:19.082Z,99.90
2018-07-23T02:40:52.839Z,99.90
2018-07-23T02:43:26.623Z,99.90
2018-07-23T02:46:00.360Z,99.90
2018-07-23T02:48:34.788Z,99.90
2018-07-23T02:51:08.531Z,99.90
2018-07-23T02:53:42.371Z,99.90
2018-07-23T02:56:16.151Z,99.90
2018-07-23T02:58:49.947Z,99.90
2018-07-23T03:01:24.537Z,99.90
2018-07-23T03:03:58.407Z,99.90
2018-07-23T03:06:32.172Z,99.90
2018-07-23T03:09:06.011Z,99.90
2018-07-23T03:11:39.865Z,99.90
2018-07-23T03:14:13.599Z,99.90
2018-07-23T03:16:47.460Z,99.90
2018-07-23T03:19:22.012Z,99.90
2018-07-23T03:21:55.899Z,99.90
2018-07-23T03:24:30.432Z,99.90
2018-07-23T03:27:04.319Z,99.90
2018-07-23T03:29:38.896Z,99.90
2018-07-23T03:32:12.769Z,99.90
2018-07-23T03:34:47.324Z,99.90
2018-07-23T03:37:21.952Z,99.90
2018-07-23T03:39:56.431Z,99.90
2018-07-23T03:42:31.008Z,99.90
2018-07-23T03:45:04.761Z,99.90
2018-07-23T03:47:38.413Z,99.90
2018-07-23T03:50:12.235Z,99.90
2018-07-23T03:52:46.102Z,99.90
2018-07-23T03:55:19.829Z,99.90
2018-07-23T03:57:54.347Z,99.90
2018-07-23T04:00:28.212Z,99.90
2018-07-23T04:03:02.094Z,99.90
2018-07-23T04:05:35.906Z,99.90
2018-07-23T04:08:10.476Z,99.90
2018-07-23T04:10:45.133Z,99.90
2018-07-23T04:13:19.064Z,99.90
2018-07-23T04:15:53.669Z,99.90
2018-07-23T04:18:27.568Z,99.90
2018-07-23T04:21:01.508Z,99.90
2018-07-23T04:23:35.275Z,99.90
2018-07-23T04:26:09.907Z,99.90
2018-07-23T04:28:44.505Z,99.90
2018-07-23T04:31:18.381Z,99.90
2018-07-23T04:33:52.171Z,99.90
2018-07-23T04:36:26.675Z,99.90
2018-07-23T04:39:01.171Z,99.90
2018-07-23T04:41:34.916Z,99.90
2018-07-23T04:44:08.585Z,99.90
2018-07-23T04:46:43.008Z,99.90
2018-07-23T04:49:16.727Z,99.90
2018-07-23T04:51:50.386Z,99.90
2018-07-23T04:54:24.131Z,99.90
2018-07-23T04:56:58.135Z,99.90
2018-07-23T04:59:31.987Z,99.90
2018-07-23T05:02:05.728Z,99.90
2018-07-23T05:04:39.351Z,99.90
2018-07-23T05:07:13.275Z,99.90
2018-07-23T05:09:47.857Z,99.90
2018-07-23T05:12:22.413Z,99.90
2018-07-23T05:14:56.238Z,99.90
2018-07-23T05:17:30.304Z,99.90
2018-07-23T05:20:04.072Z,99.90
2018-07-23T05:22:38.755Z,99.90
2018-07-23T05:25:13.422Z,99.90
2018-07-23T05:27:47.743Z,99.90
2018-07-23T05:30:22.192Z,99.90
2018-07-23T05:32:56.098Z,99.90
2018-07-23T05:35:29.735Z,99.90
2018-07-23T05:38:03.453Z,99.90
2018-07-23T05:40:38.032Z,99.90
2018-07-23T05:43:11.739Z,99.90
2018-07-23T05:45:45.437Z,99.90
2018-07-23T05:48:19.183Z,99.90
2018-07-23T05:50:52.910Z,99.90
2018-07-23T05:53:26.594Z,99.90
2018-07-23T05:56:00.673Z,99.90
2018-07-23T05:58:34.423Z,99.90
2018-07-23T06:01:08.165Z,99.90
2018-07-23T06:03:41.969Z,99.90
2018-07-23T06:06:15.740Z,99.90
2018-07-23T06:08:49.679Z,99.90
2018-07-23T06:11:23.368Z,99.90
2018-07-23T06:13:57.929Z,99.90
2018-07-23T06:16:31.692Z,99.90
2018-07-23T06:19:05.642Z,99.90
2018-07-23T06:21:39.496Z,99.90
2018-07-23T06:24:14.076Z,99.90
2018-07-23T06:26:47.923Z,99.90
2018-07-23T06:29:22.566Z,99.90
2018-07-23T06:31:57.020Z,99.90
2018-07-23T06:34:30.920Z,99.90
2018-07-23T06:37:05.548Z,99.90
2018-07-23T06:39:39.515Z,99.90
2018-07-23T06:42:14.135Z,99.90
2018-07-23T06:44:47.858Z,99.90
2018-07-23T06:47:21.654Z,99.90
2018-07-23T06:49:56.244Z,99.90
2018-07-23T06:52:31.270Z,99.90
2018-07-23T06:55:05.185Z,99.90
2018-07-23T06:57:39.181Z,99.90
2018-07-23T07:00:13.123Z,99.90
2018-07-23T07:02:47.753Z,99.90
2018-07-23T07:05:21.571Z,99.90
2018-07-23T07:07:56.168Z,99.90
2018-07-23T07:10:30.318Z,99.90
2018-07-23T07:13:03.928Z,99.90
2018-07-23T07:15:38.526Z,99.90
2018-07-23T07:18:12.362Z,99.90
2018-07-23T07:20:46.168Z,99.90
2018-07-23T07:23:19.935Z,99.90
2018-07-23T07:25:54.448Z,99.90
2018-07-23T07:28:28.223Z,99.90
2018-07-23T07:31:01.904Z,99.90
2018-07-23T07:33:35.927Z,99.90
2018-07-23T07:36:09.740Z,99.90
2018-07-23T07:38:44.405Z,99.90
2018-07-23T07:41:19.115Z,99.90
2018-07-23T07:43:52.901Z,99.90
2018-07-23T07:46:26.688Z,99.90
2018-07-23T07:49:00.687Z,99.90
2018-07-23T07:51:35.243Z,99.90
2018-07-23T07:54:08.993Z,99.90
2018-07-23T07:56:42.779Z,99.90
2018-07-23T07:59:16.612Z,99.90
2018-07-23T08:01:50.462Z,99.90
2018-07-23T08:04:24.195Z,99.90
2018-07-23T08:06:58.076Z,99.90
2018-07-23T08:09:32.716Z,99.90
2018-07-23T08:12:06.564Z,99.90
2018-07-23T08:14:41.088Z,99.90
2018-07-23T08:17:14.710Z,99.90
2018-07-23T08:19:48.480Z,99.90
2018-07-23T08:22:22.337Z,99.90
2018-07-23T08:24:56.879Z,99.90
2018-07-23T08:27:30.728Z,99.90
2018-07-23T08:30:05.204Z,99.90
2018-07-23T08:32:38.981Z,99.90
2018-07-23T08:35:12.685Z,99.90
2018-07-23T08:37:46.483Z,99.90
2018-07-23T08:40:20.346Z,99.90
2018-07-23T08:42:54.995Z,99.90
2018-07-23T08:45:28.743Z,99.90
2018-07-23T08:48:02.556Z,99.90
2018-07-23T08:50:36.309Z,99.90
2018-07-23T08:53:10.126Z,99.90
2018-07-23T08:55:44.686Z,99.90
2018-07-23T08:58:18.530Z,99.90
2018-07-23T09:00:52.400Z,99.90
2018-07-23T09:03:26.083Z,99.90
2018-07-23T09:05:59.823Z,99.90
2018-07-23T09:08:33.634Z,99.90
2018-07-23T09:11:07.567Z,99.90
2018-07-23T09:13:41.355Z,99.90
2018-07-23T09:16:15.221Z,99.90
2018-07-23T09:18:48.964Z,99.90
2018-07-23T09:21:22.832Z,99.90
2018-07-23T09:23:56.685Z,99.90
2018-07-23T09:26:31.244Z,99.90
2018-07-23T09:29:05.765Z,99.90
2018-07-23T09:31:40.385Z,99.90
2018-07-23T09:34:14.895Z,99.90
2018-07-23T09:36:48.586Z,99.90
2018-07-23T09:39:23.195Z,99.90
2018-07-23T09:41:57.817Z,99.90
2018-07-23T09:44:32.482Z,99.90
2018-07-23T09:47:06.293Z,99.90
2018-07-23T09:49:39.928Z,99.90
2018-07-23T09:52:13.727Z,99.90
2018-07-23T09:54:47.403Z,99.90
2018-07-23T09:57:21.925Z,99.90
2018-07-23T09:59:55.654Z,99.90
2018-07-23T10:02:29.427Z,99.90
2018-07-23T10:05:03.228Z,99.90
2018-07-23T10:07:37.872Z,99.90
2018-07-23T10:10:12.347Z,99.90
2018-07-23T10:12:46.132Z,99.90
2018-07-23T10:15:19.893Z,99.90
2018-07-23T10:17:53.728Z,99.90
2018-07-23T10:20:27.467Z,99.90
2018-07-23T10:23:01.416Z,99.90
2018-07-23T10:25:35.176Z,99.90
2018-07-23T10:28:09.083Z,99.90
2018-07-23T10:30:43.607Z,99.90
2018-07-23T10:33:17.449Z,99.90
2018-07-23T10:35:51.054Z,99.90
2018-07-23T10:38:24.967Z,99.90
2018-07-23T10:40:58.787Z,98.20
2018-07-23T10:43:33.404Z,97.40
2018-07-23T10:46:08.016Z,98.30
2018-07-23T10:48:41.865Z,98.10
2018-07-23T10:51:15.616Z,96.40
2018-07-23T10:53:50.139Z,94.90
2018-07-23T10:56:23.881Z,95.40
2018-07-23T10:58:57.804Z,90.90
2018-07-23T11:01:31.584Z,90.80
2018-07-23T11:04:05.275Z,94.00
2018-07-23T11:06:39.093Z,97.20
2018-07-23T11:09:13.836Z,95.10
2018-07-23T11:11:48.426Z,91.30
2018-07-23T11:14:23.079Z,91.10
2018-07-23T11:16:56.856Z,91.00
2018-07-23T11:19:30.703Z,91.60
2018-07-23T11:22:04.718Z,91.20
2018-07-23T11:24:45.388Z,92.10
2018-07-23T11:27:14.865Z,92.70
2018-07-23T11:29:48.882Z,94.30
2018-07-23T11:32:22.847Z,92.40
2018-07-23T11:34:56.729Z,90.30
2018-07-23T11:37:30.576Z,90.90
2018-07-23T11:40:04.288Z,90.80
2018-07-23T11:42:38.175Z,91.80
2018-07-23T11:45:13.591Z,98.80
2018-07-23T11:47:48.257Z,98.80
2018-07-23T11:50:23.541Z,99.30
2018-07-23T11:52:57.212Z,93.10
2018-07-23T11:55:31.060Z,92.00
2018-07-23T11:58:05.096Z,89.10
2018-07-23T12:00:39.514Z,91.30
2018-07-23T12:03:13.347Z,90.00
2018-07-23T12:05:47.127Z,85.80
2018-07-23T12:08:20.921Z,86.30
2018-07-23T12:10:54.735Z,85.00
2018-07-23T12:13:28.487Z,89.00
2018-07-23T12:16:03.383Z,88.60
2018-07-23T12:18:37.132Z,88.60
2018-07-23T12:21:10.890Z,88.30
2018-07-23T12:23:45.472Z,86.30
2018-07-23T12:26:19.386Z,86.20
2018-07-23T12:28:53.874Z,85.30
2018-07-23T12:31:27.692Z,85.40
2018-07-23T12:34:01.518Z,89.60
2018-07-23T12:36:35.365Z,90.60
2018-07-23T12:39:09.157Z,90.40
2018-07-23T12:41:43.815Z,89.80
2018-07-23T12:44:17.543Z,89.90
2018-07-23T12:46:51.359Z,88.40
2018-07-23T12:49:25.165Z,84.90
2018-07-23T12:51:58.943Z,83.30
2018-07-23T12:54:32.805Z,82.80
2018-07-23T12:57:07.311Z,88.20
2018-07-23T12:59:41.119Z,88.10
2018-07-23T13:02:15.627Z,88.20
2018-07-23T13:04:49.303Z,88.20
2018-07-23T13:07:23.166Z,89.00
2018-07-23T13:09:57.071Z,85.30
2018-07-23T13:12:31.087Z,84.30
2018-07-23T13:15:04.683Z,81.30
2018-07-23T13:17:38.447Z,77.40
2018-07-23T13:20:12.941Z,73.10
2018-07-23T13:22:46.832Z,73.20
2018-07-23T13:25:21.217Z,72.90
2018-07-23T13:27:54.994Z,72.90
2018-07-23T13:30:28.685Z,72.90
2018-07-23T13:33:02.556Z,71.60
2018-07-23T13:35:36.354Z,70.60
2018-07-23T13:38:10.187Z,67.00
2018-07-23T13:40:43.952Z,67.10
2018-07-23T13:43:17.739Z,65.80
2018-07-23T13:45:51.566Z,66.90
2018-07-23T13:48:25.295Z,64.70
2018-07-23T13:50:59.892Z,65.30
2018-07-23T13:53:33.652Z,65.30
2018-07-23T13:56:07.512Z,66.30
2018-07-23T13:58:41.662Z,66.20
2018-07-23T14:01:15.439Z,66.50
2018-07-23T14:03:49.972Z,66.50
2018-07-23T14:06:23.816Z,66.50
2018-07-23T14:08:57.546Z,67.10
2018-07-23T14:11:31.392Z,68.20
2018-07-23T14:14:05.260Z,69.20
2018-07-23T14:16:39.123Z,71.40
2018-07-23T14:19:13.707Z,70.60
2018-07-23T14:21:47.455Z,70.60
2018-07-23T14:24:21.262Z,70.30
2018-07-23T14:26:55.116Z,69.70
2018-07-23T14:29:28.953Z,68.90
2018-07-23T14:32:02.743Z,69.60
2018-07-23T14:34:36.578Z,71.10
2018-07-23T14:37:10.326Z,70.10
2018-07-23T14:39:44.036Z,72.00
2018-07-23T14:42:18.525Z,70.80
2018-07-23T14:44:52.303Z,70.80
2018-07-23T14:47:26.052Z,71.70
2018-07-23T14:49:59.895Z,73.30
2018-07-23T14:52:33.615Z,74.30
2018-07-23T14:55:07.388Z,76.20
2018-07-23T14:57:41.336Z,78.00
2018-07-23T15:00:15.004Z,79.00
2018-07-23T15:02:49.628Z,80.10
2018-07-23T15:05:23.333Z,80.10
2018-07-23T15:07:57.133Z,77.70
2018-07-23T15:10:30.864Z,78.10
2018-07-23T15:13:04.791Z,76.80
2018-07-23T15:15:38.695Z,76.30
2018-07-23T15:18:12.433Z,76.30
2018-07-23T15:20:47.064Z,77.30
2018-07-23T15:23:20.919Z,77.30
2018-07-23T15:25:54.742Z,77.70
2018-07-23T15:28:29.322Z,78.00
2018-07-23T15:31:04.031Z,79.00
2018-07-23T15:33:37.693Z,79.00
2018-07-23T15:36:12.461Z,79.30
2018-07-23T15:38:46.780Z,79.30
2018-07-23T15:41:20.462Z,78.80
2018-07-23T15:43:55.612Z,79.70
2018-07-23T15:46:30.111Z,79.80
2018-07-23T15:49:03.908Z,79.90
2018-07-23T15:51:37.696Z,81.00
2018-07-23T15:54:12.299Z,81.80
2018-07-23T15:56:46.223Z,81.70
2018-07-23T15:59:19.982Z,82.20
2018-07-23T16:01:53.759Z,80.50
2018-07-23T16:04:27.459Z,81.30
2018-07-23T16:07:01.224Z,82.00
2018-07-23T16:09:35.070Z,83.20
2018-07-23T16:12:09.659Z,82.30
2018-07-23T16:14:43.430Z,82.30
2018-07-23T16:17:17.167Z,83.00
2018-07-23T16:19:51.803Z,83.90
2018-07-23T16:22:25.536Z,83.90
2018-07-23T16:24:59.340Z,86.10
2018-07-23T16:27:33.268Z,85.30
2018-07-23T16:30:07.076Z,85.00
2018-07-23T16:32:40.994Z,85.90
2018-07-23T16:35:15.444Z,83.70
2018-07-23T16:37:49.888Z,83.70
2018-07-23T16:40:24.793Z,83.60
2018-07-23T16:42:58.588Z,83.70
2018-07-23T16:45:33.547Z,83.40
2018-07-23T16:48:08.735Z,86.80
2018-07-23T16:50:42.683Z,86.70
2018-07-23T16:53:17.259Z,86.50
2018-07-23T16:55:51.948Z,88.20
2018-07-23T16:58:26.628Z,86.90
2018-07-23T17:01:00.427Z,86.80
2018-07-23T17:03:34.997Z,88.60
2018-07-23T17:06:08.842Z,88.50
2018-07-23T17:08:43.423Z,88.10
2018-07-23T17:11:17.119Z,88.00
2018-07-23T17:13:50.972Z,89.70
2018-07-23T17:16:24.787Z,89.80
2018-07-23T17:18:59.483Z,90.10
2018-07-23T17:21:33.305Z,90.10
2018-07-23T17:24:07.167Z,90.40
2018-07-23T17:26:40.992Z,90.90
2018-07-23T17:29:14.791Z,91.20
2018-07-23T17:31:48.475Z,92.00
2018-07-23T17:34:22.343Z,93.00
2018-07-23T17:36:56.943Z,94.50
2018-07-23T17:39:32.245Z,94.70
2018-07-23T17:42:06.903Z,95.00
2018-07-23T17:44:42.530Z,95.80
2018-07-23T17:47:16.520Z,95.80
2018-07-23T17:49:51.202Z,96.70
2018-07-23T17:52:25.016Z,96.90
2018-07-23T17:54:58.805Z,97.10
2018-07-23T17:57:33.298Z,98.30
2018-07-23T18:00:07.954Z,98.70
2018-07-23T18:02:42.356Z,99.20
2018-07-23T18:05:16.064Z,98.80
2018-07-23T18:07:50.696Z,99.30
2018-07-23T18:10:24.508Z,99.30
2018-07-23T18:13:00.416Z,99.00
2018-07-23T18:15:34.685Z,99.00
2018-07-23T18:18:08.548Z,99.30
2018-07-23T18:20:43.237Z,99.90
2018-07-23T18:23:17.832Z,99.90
2018-07-23T18:25:51.650Z,99.90
2018-07-23T18:28:25.524Z,99.90
2018-07-23T18:31:00.072Z,99.90
2018-07-23T18:33:33.802Z,99.90
2018-07-23T18:36:07.619Z,99.90
2018-07-23T18:38:41.551Z,99.90
2018-07-23T18:41:15.879Z,99.90
2018-07-23T18:43:49.579Z,99.90
2018-07-23T18:46:24.054Z,99.90
2018-07-23T18:51:58.091Z,99.90
2018-07-23T18:54:31.986Z,99.90
2018-07-23T18:57:06.563Z,99.90
2018-07-23T18:59:40.519Z,99.90
2018-07-23T19:02:14.240Z,99.90
2018-07-23T19:04:48.004Z,99.90
2018-07-23T19:07:21.855Z,99.90
2018-07-23T19:09:55.673Z,99.90
2018-07-23T19:12:29.476Z,99.90
2018-07-23T19:15:05.007Z,99.90
2018-07-23T19:17:39.431Z,99.90
2018-07-23T19:20:14.064Z,99.90
2018-07-23T19:22:47.783Z,99.90
2018-07-23T19:25:21.467Z,99.90
2018-07-23T19:27:56.052Z,99.90
2018-07-23T19:30:29.836Z,99.90
2018-07-23T19:33:03.615Z,99.90
2018-07-23T19:35:37.240Z,99.90
2018-07-23T19:38:11.082Z,99.90
2018-07-23T19:40:45.741Z,99.90
2018-07-23T19:43:20.311Z,99.90
2018-07-23T19:45:54.962Z,99.90
2018-07-23T19:48:28.673Z,99.90
2018-07-23T19:51:02.385Z,99.90
2018-07-23T19:53:36.979Z,99.90
2018-07-23T19:56:10.706Z,99.90
2018-07-23T19:58:44.582Z,99.90
2018-07-23T20:01:18.363Z,99.90
2018-07-23T20:03:52.829Z,99.90
2018-07-23T20:06:26.644Z,99.90
2018-07-23T20:09:01.381Z,99.90
2018-07-23T20:11:35.163Z,99.90
2018-07-23T20:14:09.772Z,99.90
2018-07-23T20:16:44.220Z,99.90
2018-07-23T20:19:17.993Z,99.90
2018-07-23T20:21:53.363Z,99.90
2018-07-23T20:24:27.151Z,99.90
2018-07-23T20:27:00.935Z,99.90
2018-07-23T20:29:34.849Z,99.90
2018-07-23T20:32:09.331Z,99.90
2018-07-23T20:34:43.951Z,99.90
2018-07-23T20:37:17.749Z,99.90
2018-07-23T20:39:52.450Z,99.90
2018-07-23T20:42:26.199Z,99.90
2018-07-23T20:45:00.783Z,99.90
2018-07-23T20:47:35.471Z,99.90
2018-07-23T20:50:09.416Z,99.90
2018-07-23T20:52:43.257Z,99.90
2018-07-23T20:55:17.147Z,99.90
2018-07-23T20:57:51.864Z,99.90
2018-07-23T21:00:25.642Z,99.90
2018-07-23T21:03:00.163Z,99.90
2018-07-23T21:05:34.828Z,99.90
2018-07-23T21:08:08.628Z,99.90
2018-07-23T21:10:43.242Z,99.90
2018-07-23T21:13:17.679Z,99.90
2018-07-23T21:15:51.488Z,99.90
2018-07-23T21:18:25.427Z,99.90
2018-07-23T21:20:59.197Z,99.90
2018-07-23T21:23:33.816Z,99.90
2018-07-23T21:26:07.615Z,99.90
2018-07-23T21:28:41.367Z,99.90
2018-07-23T21:31:15.175Z,99.90
2018-07-23T21:33:48.969Z,99.90
2018-07-23T21:36:22.867Z,99.90
2018-07-23T21:38:56.632Z,99.90
2018-07-23T21:41:30.365Z,99.90
2018-07-23T21:44:04.820Z,99.90
2018-07-23T21:46:38.735Z,99.90
2018-07-23T21:49:13.279Z,99.90
2018-07-23T21:51:47.923Z,99.90
2018-07-23T21:54:21.824Z,99.90
2018-07-23T21:56:56.384Z,99.90
2018-07-23T21:59:30.991Z,99.90
2018-07-23T22:02:05.383Z,99.90
2018-07-23T22:04:39.269Z,99.90
2018-07-23T22:07:13.114Z,99.90
2018-07-23T22:09:46.893Z,99.90
2018-07-23T22:12:20.505Z,99.90
2018-07-23T22:14:54.173Z,99.90
2018-07-23T22:17:27.947Z,99.90
2018-07-23T22:20:01.725Z,99.90
2018-07-23T22:22:36.379Z,99.90
2018-07-23T22:25:10.970Z,99.90
2018-07-23T22:27:45.519Z,99.90
2018-07-23T22:30:19.377Z,99.90
2018-07-23T22:32:53.964Z,99.90
2018-07-23T22:35:27.859Z,99.90
2018-07-23T22:38:01.658Z,99.90
2018-07-23T22:40:35.463Z,99.90
2018-07-23T22:43:10.069Z,99.90
2018-07-23T22:45:44.721Z,99.90
2018-07-23T22:48:19.271Z,99.90
2018-07-23T22:50:53.843Z,99.90
2018-07-23T22:53:27.730Z,99.90
2018-07-23T22:56:01.623Z,99.90
2018-07-23T22:58:36.302Z,99.90
2018-07-23T23:01:10.121Z,99.90
2018-07-23T23:03:44.634Z,99.90
2018-07-23T23:06:18.437Z,99.90
2018-07-23T23:08:52.203Z,99.90
2018-07-23T23:11:25.844Z,99.90
2018-07-23T23:14:00.423Z,99.90
2018-07-23T23:16:34.975Z,99.90
2018-07-23T23:19:08.865Z,99.90
2018-07-23T23:21:43.414Z,99.90
2018-07-23T23:24:18.065Z,99.90
2018-07-23T23:26:51.857Z,99.90
2018-07-23T23:29:25.679Z,99.90
2018-07-23T23:31:59.483Z,99.90
2018-07-23T23:34:34.007Z,99.90
2018-07-23T23:37:07.900Z,99.90
2018-07-23T23:39:41.499Z,99.90
2018-07-23T23:42:16.146Z,99.90
2018-07-23T23:44:50.046Z,99.90
2018-07-23T23:47:23.852Z,99.90
2018-07-23T23:49:58.494Z,99.90
2018-07-23T23:52:32.369Z,99.90
2018-07-23T23:55:06.240Z,99.90
2018-07-23T23:57:40.739Z,99.90
